sensor_id;sensor_type;location;lat;lon;timestamp;P1;durP1;ratioP1;P2;durP2;ratioP2
39050;SDS011;24805;55.852;37.644;2022-08-16T00:03:42;11.73;;;6.03;;
39050;SDS011;24805;55.852;37.644;2022-08-16T00:08:45;10.82;;;7.60;;
39050;SDS011;24805;55.852;37.644;2022-08-16T00:13:48;13.70;;;8.45;;
39050;SDS011;24805;55.852;37.644;2022-08-16T00:18:56;11.73;;;8.35;;
39050;SDS011;24805;55.852;37.644;2022-08-16T00:23:59;14.05;;;8.65;;
39050;SDS011;24805;55.852;37.644;2022-08-16T00:29:05;11.65;;;7.78;;
39050;SDS011;24805;55.852;37.644;2022-08-16T00:34:07;13.75;;;7.22;;
39050;SDS011;24805;55.852;37.644;2022-08-16T00:39:19;9.63;;;7.38;;
39050;SDS011;24805;55.852;37.644;2022-08-16T00:44:21;10.32;;;6.63;;
39050;SDS011;24805;55.852;37.644;2022-08-16T00:54:45;11.15;;;6.68;;
39050;SDS011;24805;55.852;37.644;2022-08-16T00:59:48;12.80;;;7.18;;
39050;SDS011;24805;55.852;37.644;2022-08-16T01:05:00;9.00;;;6.30;;
39050;SDS011;24805;55.852;37.644;2022-08-16T01:10:12;10.48;;;7.00;;
39050;SDS011;24805;55.852;37.644;2022-08-16T01:15:17;9.75;;;6.75;;
39050;SDS011;24805;55.852;37.644;2022-08-16T01:20:19;9.63;;;7.22;;
39050;SDS011;24805;55.852;37.644;2022-08-16T01:25:33;9.77;;;7.20;;
39050;SDS011;24805;55.852;37.644;2022-08-16T01:30:39;9.25;;;7.30;;
39050;SDS011;24805;55.852;37.644;2022-08-16T01:35:54;8.38;;;6.40;;
39050;SDS011;24805;55.852;37.644;2022-08-16T01:41:01;12.15;;;7.00;;
39050;SDS011;24805;55.852;37.644;2022-08-16T01:51:59;10.65;;;7.10;;
39050;SDS011;24805;55.852;37.644;2022-08-16T01:57:28;8.85;;;6.25;;
39050;SDS011;24805;55.852;37.644;2022-08-16T02:02:32;10.63;;;6.90;;
39050;SDS011;24805;55.852;37.644;2022-08-16T02:07:43;11.45;;;6.72;;
39050;SDS011;24805;55.852;37.644;2022-08-16T02:12:48;11.50;;;6.40;;
39050;SDS011;24805;55.852;37.644;2022-08-16T02:17:57;8.05;;;5.78;;
39050;SDS011;24805;55.852;37.644;2022-08-16T02:23:03;8.63;;;5.75;;
39050;SDS011;24805;55.852;37.644;2022-08-16T02:28:06;8.68;;;5.57;;
39050;SDS011;24805;55.852;37.644;2022-08-16T02:33:10;7.72;;;5.43;;
39050;SDS011;24805;55.852;37.644;2022-08-16T02:38:16;10.15;;;6.25;;
39050;SDS011;24805;55.852;37.644;2022-08-16T02:43:21;10.43;;;6.10;;
39050;SDS011;24805;55.852;37.644;2022-08-16T02:48:29;6.03;;;4.85;;
39050;SDS011;24805;55.852;37.644;2022-08-16T02:53:35;6.82;;;5.50;;
39050;SDS011;24805;55.852;37.644;2022-08-16T02:58:44;9.45;;;6.35;;
39050;SDS011;24805;55.852;37.644;2022-08-16T03:03:48;8.13;;;5.38;;
39050;SDS011;24805;55.852;37.644;2022-08-16T03:09:11;9.50;;;6.00;;
39050;SDS011;24805;55.852;37.644;2022-08-16T03:14:20;7.65;;;5.90;;
39050;SDS011;24805;55.852;37.644;2022-08-16T03:19:31;12.20;;;6.07;;
39050;SDS011;24805;55.852;37.644;2022-08-16T03:24:55;8.70;;;5.72;;
39050;SDS011;24805;55.852;37.644;2022-08-16T03:30:07;10.35;;;5.90;;
39050;SDS011;24805;55.852;37.644;2022-08-16T03:35:21;7.10;;;5.82;;
39050;SDS011;24805;55.852;37.644;2022-08-16T03:45:44;8.82;;;6.00;;
39050;SDS011;24805;55.852;37.644;2022-08-16T03:50:46;8.52;;;5.80;;
39050;SDS011;24805;55.852;37.644;2022-08-16T03:56:02;10.60;;;6.45;;
39050;SDS011;24805;55.852;37.644;2022-08-16T04:01:07;14.07;;;6.38;;
39050;SDS011;24805;55.852;37.644;2022-08-16T04:06:09;10.50;;;5.78;;
39050;SDS011;24805;55.852;37.644;2022-08-16T04:11:12;9.95;;;5.50;;
39050;SDS011;24805;55.852;37.644;2022-08-16T04:16:19;11.32;;;6.47;;
39050;SDS011;24805;55.852;37.644;2022-08-16T04:26:35;9.70;;;5.63;;
39050;SDS011;24805;55.852;37.644;2022-08-16T04:31:47;10.38;;;6.32;;
39050;SDS011;24805;55.852;37.644;2022-08-16T04:37:01;12.43;;;6.30;;
39050;SDS011;24805;55.852;37.644;2022-08-16T04:42:09;10.95;;;5.88;;
39050;SDS011;24805;55.852;37.644;2022-08-16T04:47:13;13.60;;;5.88;;
39050;SDS011;24805;55.852;37.644;2022-08-16T04:52:26;11.63;;;6.15;;
39050;SDS011;24805;55.852;37.644;2022-08-16T04:57:37;12.63;;;6.27;;
39050;SDS011;24805;55.852;37.644;2022-08-16T05:02:42;10.45;;;6.15;;
39050;SDS011;24805;55.852;37.644;2022-08-16T05:07:47;13.90;;;6.05;;
39050;SDS011;24805;55.852;37.644;2022-08-16T05:13:01;13.70;;;6.13;;
39050;SDS011;24805;55.852;37.644;2022-08-16T05:18:04;12.40;;;5.93;;
39050;SDS011;24805;55.852;37.644;2022-08-16T05:23:23;10.90;;;5.47;;
39050;SDS011;24805;55.852;37.644;2022-08-16T05:28:34;13.20;;;6.03;;
39050;SDS011;24805;55.852;37.644;2022-08-16T05:33:41;9.82;;;5.07;;
39050;SDS011;24805;55.852;37.644;2022-08-16T05:38:44;10.38;;;5.00;;
39050;SDS011;24805;55.852;37.644;2022-08-16T05:43:48;7.95;;;5.10;;
39050;SDS011;24805;55.852;37.644;2022-08-16T05:49:07;8.32;;;3.85;;
39050;SDS011;24805;55.852;37.644;2022-08-16T05:54:14;10.00;;;3.78;;
39050;SDS011;24805;55.852;37.644;2022-08-16T05:59:27;8.88;;;5.03;;
39050;SDS011;24805;55.852;37.644;2022-08-16T06:04:31;10.52;;;3.55;;
39050;SDS011;24805;55.852;37.644;2022-08-16T06:09:44;11.52;;;3.53;;
39050;SDS011;24805;55.852;37.644;2022-08-16T06:14:49;6.18;;;3.00;;
39050;SDS011;24805;55.852;37.644;2022-08-16T06:19:54;9.70;;;3.92;;
39050;SDS011;24805;55.852;37.644;2022-08-16T06:24:57;9.05;;;3.15;;
39050;SDS011;24805;55.852;37.644;2022-08-16T06:30:01;5.28;;;2.65;;
39050;SDS011;24805;55.852;37.644;2022-08-16T06:35:05;4.53;;;2.65;;
39050;SDS011;24805;55.852;37.644;2022-08-16T06:40:09;7.63;;;3.28;;
39050;SDS011;24805;55.852;37.644;2022-08-16T06:45:20;7.05;;;3.42;;
39050;SDS011;24805;55.852;37.644;2022-08-16T06:50:33;9.23;;;3.20;;
39050;SDS011;24805;55.852;37.644;2022-08-16T06:55:40;8.70;;;2.95;;
39050;SDS011;24805;55.852;37.644;2022-08-16T07:00:46;10.20;;;3.20;;
39050;SDS011;24805;55.852;37.644;2022-08-16T07:05:50;6.18;;;2.63;;
39050;SDS011;24805;55.852;37.644;2022-08-16T07:11:01;5.85;;;2.78;;
39050;SDS011;24805;55.852;37.644;2022-08-16T07:16:08;8.95;;;3.08;;
39050;SDS011;24805;55.852;37.644;2022-08-16T07:26:21;7.18;;;3.10;;
39050;SDS011;24805;55.852;37.644;2022-08-16T07:31:29;7.73;;;2.67;;
39050;SDS011;24805;55.852;37.644;2022-08-16T07:36:42;5.85;;;3.50;;
39050;SDS011;24805;55.852;37.644;2022-08-16T07:41:59;14.40;;;2.53;;
39050;SDS011;24805;55.852;37.644;2022-08-16T07:47:02;12.07;;;2.38;;
39050;SDS011;24805;55.852;37.644;2022-08-16T07:52:05;8.23;;;2.45;;
39050;SDS011;24805;55.852;37.644;2022-08-16T07:57:19;9.65;;;1.92;;
39050;SDS011;24805;55.852;37.644;2022-08-16T08:02:26;9.73;;;2.47;;
39050;SDS011;24805;55.852;37.644;2022-08-16T08:07:31;7.32;;;2.30;;
39050;SDS011;24805;55.852;37.644;2022-08-16T08:12:37;7.85;;;2.30;;
39050;SDS011;24805;55.852;37.644;2022-08-16T08:17:41;14.13;;;2.50;;
39050;SDS011;24805;55.852;37.644;2022-08-16T08:22:50;6.32;;;1.60;;
39050;SDS011;24805;55.852;37.644;2022-08-16T08:28:02;9.32;;;2.00;;
39050;SDS011;24805;55.852;37.644;2022-08-16T08:33:12;12.55;;;1.92;;
39050;SDS011;24805;55.852;37.644;2022-08-16T08:38:17;7.35;;;2.15;;
39050;SDS011;24805;55.852;37.644;2022-08-16T08:43:40;6.20;;;1.65;;
39050;SDS011;24805;55.852;37.644;2022-08-16T08:48:48;7.18;;;2.67;;
39050;SDS011;24805;55.852;37.644;2022-08-16T08:54:01;7.25;;;2.00;;
39050;SDS011;24805;55.852;37.644;2022-08-16T08:59:08;5.93;;;2.00;;
39050;SDS011;24805;55.852;37.644;2022-08-16T09:04:17;3.47;;;1.70;;
39050;SDS011;24805;55.852;37.644;2022-08-16T09:09:21;4.25;;;2.22;;
39050;SDS011;24805;55.852;37.644;2022-08-16T09:14:30;3.85;;;2.17;;
39050;SDS011;24805;55.852;37.644;2022-08-16T09:19:34;4.88;;;2.53;;
39050;SDS011;24805;55.852;37.644;2022-08-16T09:24:41;5.05;;;3.13;;
39050;SDS011;24805;55.852;37.644;2022-08-16T09:29:57;4.25;;;2.30;;
39050;SDS011;24805;55.852;37.644;2022-08-16T09:35:02;3.67;;;2.30;;
39050;SDS011;24805;55.852;37.644;2022-08-16T09:40:05;4.68;;;1.90;;
39050;SDS011;24805;55.852;37.644;2022-08-16T09:45:29;5.18;;;2.03;;
39050;SDS011;24805;55.852;37.644;2022-08-16T09:50:36;5.57;;;1.67;;
39050;SDS011;24805;55.852;37.644;2022-08-16T09:55:40;4.65;;;1.90;;
39050;SDS011;24805;55.852;37.644;2022-08-16T10:00:45;6.03;;;2.05;;
39050;SDS011;24805;55.852;37.644;2022-08-16T10:05:47;3.22;;;1.90;;
39050;SDS011;24805;55.852;37.644;2022-08-16T10:10:50;6.35;;;2.28;;
39050;SDS011;24805;55.852;37.644;2022-08-16T10:16:11;4.80;;;2.10;;
39050;SDS011;24805;55.852;37.644;2022-08-16T10:21:15;4.75;;;2.13;;
39050;SDS011;24805;55.852;37.644;2022-08-16T10:26:19;5.43;;;2.00;;
39050;SDS011;24805;55.852;37.644;2022-08-16T10:31:44;3.50;;;2.05;;
39050;SDS011;24805;55.852;37.644;2022-08-16T10:36:54;2.00;;;1.73;;
39050;SDS011;24805;55.852;37.644;2022-08-16T10:41:58;3.88;;;2.25;;
39050;SDS011;24805;55.852;37.644;2022-08-16T10:47:01;3.05;;;1.88;;
39050;SDS011;24805;55.852;37.644;2022-08-16T10:52:03;7.32;;;2.50;;
39050;SDS011;24805;55.852;37.644;2022-08-16T10:57:19;5.25;;;1.90;;
39050;SDS011;24805;55.852;37.644;2022-08-16T11:02:25;3.97;;;2.60;;
39050;SDS011;24805;55.852;37.644;2022-08-16T11:07:48;5.13;;;1.95;;
39050;SDS011;24805;55.852;37.644;2022-08-16T11:12:54;4.55;;;2.05;;
39050;SDS011;24805;55.852;37.644;2022-08-16T11:18:18;2.75;;;2.03;;
39050;SDS011;24805;55.852;37.644;2022-08-16T11:23:40;4.30;;;2.00;;
39050;SDS011;24805;55.852;37.644;2022-08-16T11:28:58;6.20;;;2.30;;
39050;SDS011;24805;55.852;37.644;2022-08-16T11:34:16;5.70;;;2.05;;
39050;SDS011;24805;55.852;37.644;2022-08-16T11:39:21;5.53;;;2.15;;
39050;SDS011;24805;55.852;37.644;2022-08-16T11:44:24;2.60;;;1.80;;
39050;SDS011;24805;55.852;37.644;2022-08-16T11:49:46;3.50;;;1.75;;
39050;SDS011;24805;55.852;37.644;2022-08-16T11:54:49;4.00;;;1.60;;
39050;SDS011;24805;55.852;37.644;2022-08-16T12:04:59;5.53;;;1.77;;
39050;SDS011;24805;55.852;37.644;2022-08-16T12:10:04;2.67;;;1.90;;
39050;SDS011;24805;55.852;37.644;2022-08-16T12:15:11;2.70;;;1.73;;
39050;SDS011;24805;55.852;37.644;2022-08-16T12:20:15;4.68;;;1.90;;
39050;SDS011;24805;55.852;37.644;2022-08-16T12:25:23;3.65;;;1.85;;
39050;SDS011;24805;55.852;37.644;2022-08-16T12:30:30;6.93;;;2.40;;
39050;SDS011;24805;55.852;37.644;2022-08-16T12:35:39;2.78;;;2.10;;
39050;SDS011;24805;55.852;37.644;2022-08-16T12:40:43;3.70;;;1.80;;
39050;SDS011;24805;55.852;37.644;2022-08-16T12:45:48;5.93;;;2.22;;
39050;SDS011;24805;55.852;37.644;2022-08-16T12:50:54;4.10;;;1.90;;
39050;SDS011;24805;55.852;37.644;2022-08-16T12:55:57;4.22;;;2.00;;
39050;SDS011;24805;55.852;37.644;2022-08-16T13:01:00;2.92;;;1.83;;
39050;SDS011;24805;55.852;37.644;2022-08-16T13:06:03;5.10;;;2.03;;
39050;SDS011;24805;55.852;37.644;2022-08-16T13:11:06;3.42;;;2.28;;
39050;SDS011;24805;55.852;37.644;2022-08-16T13:16:08;5.30;;;2.60;;
39050;SDS011;24805;55.852;37.644;2022-08-16T13:21:21;5.68;;;2.47;;
39050;SDS011;24805;55.852;37.644;2022-08-16T13:26:24;4.28;;;2.40;;
39050;SDS011;24805;55.852;37.644;2022-08-16T13:31:27;6.10;;;2.75;;
39050;SDS011;24805;55.852;37.644;2022-08-16T13:36:29;8.40;;;2.55;;
39050;SDS011;24805;55.852;37.644;2022-08-16T13:41:52;5.10;;;2.80;;
39050;SDS011;24805;55.852;37.644;2022-08-16T13:46:55;5.53;;;2.75;;
39050;SDS011;24805;55.852;37.644;2022-08-16T13:51:58;9.65;;;5.00;;
39050;SDS011;24805;55.852;37.644;2022-08-16T13:57:00;7.05;;;3.92;;
39050;SDS011;24805;55.852;37.644;2022-08-16T14:02:04;8.93;;;3.47;;
39050;SDS011;24805;55.852;37.644;2022-08-16T14:07:10;5.82;;;3.75;;
39050;SDS011;24805;55.852;37.644;2022-08-16T14:12:26;7.53;;;3.90;;
39050;SDS011;24805;55.852;37.644;2022-08-16T14:17:30;7.80;;;3.33;;
39050;SDS011;24805;55.852;37.644;2022-08-16T14:22:53;4.55;;;3.38;;
39050;SDS011;24805;55.852;37.644;2022-08-16T14:27:56;5.93;;;3.55;;
39050;SDS011;24805;55.852;37.644;2022-08-16T14:32:58;4.72;;;3.08;;
39050;SDS011;24805;55.852;37.644;2022-08-16T14:38:00;6.63;;;3.28;;
39050;SDS011;24805;55.852;37.644;2022-08-16T14:43:03;6.97;;;3.20;;
39050;SDS011;24805;55.852;37.644;2022-08-16T14:48:08;6.40;;;3.45;;
39050;SDS011;24805;55.852;37.644;2022-08-16T14:53:10;5.75;;;3.35;;
39050;SDS011;24805;55.852;37.644;2022-08-16T14:58:13;5.93;;;3.22;;
39050;SDS011;24805;55.852;37.644;2022-08-16T15:03:20;6.93;;;4.00;;
39050;SDS011;24805;55.852;37.644;2022-08-16T15:08:26;7.30;;;4.05;;
39050;SDS011;24805;55.852;37.644;2022-08-16T15:13:40;6.07;;;4.20;;
39050;SDS011;24805;55.852;37.644;2022-08-16T15:18:43;8.77;;;3.67;;
39050;SDS011;24805;55.852;37.644;2022-08-16T15:23:47;6.10;;;3.80;;
39050;SDS011;24805;55.852;37.644;2022-08-16T15:28:50;6.72;;;3.58;;
39050;SDS011;24805;55.852;37.644;2022-08-16T15:33:53;8.05;;;3.85;;
39050;SDS011;24805;55.852;37.644;2022-08-16T15:38:58;6.95;;;4.72;;
39050;SDS011;24805;55.852;37.644;2022-08-16T15:44:22;5.20;;;4.55;;
39050;SDS011;24805;55.852;37.644;2022-08-16T15:49:25;9.35;;;5.20;;
39050;SDS011;24805;55.852;37.644;2022-08-16T15:54:39;9.90;;;5.07;;
39050;SDS011;24805;55.852;37.644;2022-08-16T15:59:56;6.70;;;5.78;;
39050;SDS011;24805;55.852;37.644;2022-08-16T16:05:15;8.65;;;6.25;;
39050;SDS011;24805;55.852;37.644;2022-08-16T16:10:20;10.88;;;7.07;;
39050;SDS011;24805;55.852;37.644;2022-08-16T16:15:31;10.05;;;6.88;;
39050;SDS011;24805;55.852;37.644;2022-08-16T16:20:36;15.15;;;7.40;;
39050;SDS011;24805;55.852;37.644;2022-08-16T16:25:40;10.18;;;6.78;;
39050;SDS011;24805;55.852;37.644;2022-08-16T16:30:45;9.82;;;6.80;;
39050;SDS011;24805;55.852;37.644;2022-08-16T16:35:48;11.63;;;8.27;;
39050;SDS011;24805;55.852;37.644;2022-08-16T16:40:58;12.32;;;8.75;;
39050;SDS011;24805;55.852;37.644;2022-08-16T16:46:02;9.98;;;8.70;;
39050;SDS011;24805;55.852;37.644;2022-08-16T16:51:26;12.52;;;9.15;;
39050;SDS011;24805;55.852;37.644;2022-08-16T16:56:29;17.20;;;9.60;;
39050;SDS011;24805;55.852;37.644;2022-08-16T17:01:41;12.95;;;10.13;;
39050;SDS011;24805;55.852;37.644;2022-08-16T17:07:01;11.85;;;9.10;;
39050;SDS011;24805;55.852;37.644;2022-08-16T17:12:04;15.27;;;12.10;;
39050;SDS011;24805;55.852;37.644;2022-08-16T17:17:07;14.00;;;10.23;;
39050;SDS011;24805;55.852;37.644;2022-08-16T17:22:13;13.73;;;9.40;;
39050;SDS011;24805;55.852;37.644;2022-08-16T17:27:20;13.83;;;9.83;;
39050;SDS011;24805;55.852;37.644;2022-08-16T17:32:35;13.35;;;11.10;;
39050;SDS011;24805;55.852;37.644;2022-08-16T17:37:49;16.02;;;9.93;;
39050;SDS011;24805;55.852;37.644;2022-08-16T17:42:54;18.73;;;10.65;;
39050;SDS011;24805;55.852;37.644;2022-08-16T17:47:57;14.02;;;10.10;;
39050;SDS011;24805;55.852;37.644;2022-08-16T17:53:02;12.73;;;10.40;;
39050;SDS011;24805;55.852;37.644;2022-08-16T17:58:05;17.70;;;11.13;;
39050;SDS011;24805;55.852;37.644;2022-08-16T18:03:29;14.70;;;11.02;;
39050;SDS011;24805;55.852;37.644;2022-08-16T18:08:51;13.10;;;11.02;;
39050;SDS011;24805;55.852;37.644;2022-08-16T18:14:04;17.85;;;13.48;;
39050;SDS011;24805;55.852;37.644;2022-08-16T18:19:07;13.32;;;11.40;;
39050;SDS011;24805;55.852;37.644;2022-08-16T18:24:10;19.00;;;11.10;;
39050;SDS011;24805;55.852;37.644;2022-08-16T18:29:15;12.75;;;10.65;;
39050;SDS011;24805;55.852;37.644;2022-08-16T18:34:18;16.55;;;11.70;;
39050;SDS011;24805;55.852;37.644;2022-08-16T18:39:21;16.38;;;11.52;;
39050;SDS011;24805;55.852;37.644;2022-08-16T18:44:23;12.32;;;10.88;;
39050;SDS011;24805;55.852;37.644;2022-08-16T18:49:34;12.40;;;11.13;;
39050;SDS011;24805;55.852;37.644;2022-08-16T18:54:36;12.75;;;10.90;;
39050;SDS011;24805;55.852;37.644;2022-08-16T18:59:59;13.45;;;10.80;;
39050;SDS011;24805;55.852;37.644;2022-08-16T19:05:01;16.30;;;12.00;;
39050;SDS011;24805;55.852;37.644;2022-08-16T19:10:04;16.75;;;11.10;;
39050;SDS011;24805;55.852;37.644;2022-08-16T19:15:08;15.63;;;11.73;;
39050;SDS011;24805;55.852;37.644;2022-08-16T19:20:16;18.90;;;11.75;;
39050;SDS011;24805;55.852;37.644;2022-08-16T19:25:20;19.80;;;13.35;;
39050;SDS011;24805;55.852;37.644;2022-08-16T19:30:44;16.95;;;13.05;;
39050;SDS011;24805;55.852;37.644;2022-08-16T19:35:46;17.65;;;12.95;;
39050;SDS011;24805;55.852;37.644;2022-08-16T19:40:48;17.30;;;13.82;;
39050;SDS011;24805;55.852;37.644;2022-08-16T19:45:51;16.00;;;14.30;;
39050;SDS011;24805;55.852;37.644;2022-08-16T19:50:53;18.23;;;13.18;;
39050;SDS011;24805;55.852;37.644;2022-08-16T19:55:55;14.40;;;13.00;;
39050;SDS011;24805;55.852;37.644;2022-08-16T20:00:58;14.73;;;13.20;;
39050;SDS011;24805;55.852;37.644;2022-08-16T20:06:01;16.90;;;12.88;;
39050;SDS011;24805;55.852;37.644;2022-08-16T20:11:03;18.40;;;12.70;;
39050;SDS011;24805;55.852;37.644;2022-08-16T20:16:05;15.82;;;12.27;;
39050;SDS011;24805;55.852;37.644;2022-08-16T20:21:08;15.70;;;12.07;;
39050;SDS011;24805;55.852;37.644;2022-08-16T20:26:10;14.85;;;13.23;;
39050;SDS011;24805;55.852;37.644;2022-08-16T20:31:12;14.07;;;11.88;;
39050;SDS011;24805;55.852;37.644;2022-08-16T20:36:14;12.13;;;10.75;;
39050;SDS011;24805;55.852;37.644;2022-08-16T20:41:17;13.63;;;11.23;;
39050;SDS011;24805;55.852;37.644;2022-08-16T20:46:19;15.27;;;10.55;;
39050;SDS011;24805;55.852;37.644;2022-08-16T20:51:21;15.25;;;11.43;;
39050;SDS011;24805;55.852;37.644;2022-08-16T20:56:23;11.35;;;10.13;;
39050;SDS011;24805;55.852;37.644;2022-08-16T21:01:26;15.45;;;10.93;;
39050;SDS011;24805;55.852;37.644;2022-08-16T21:06:49;13.13;;;10.43;;
39050;SDS011;24805;55.852;37.644;2022-08-16T21:11:55;13.05;;;10.23;;
39050;SDS011;24805;55.852;37.644;2022-08-16T21:17:20;14.32;;;9.88;;
39050;SDS011;24805;55.852;37.644;2022-08-16T21:22:22;12.27;;;9.35;;
39050;SDS011;24805;55.852;37.644;2022-08-16T21:27:44;15.48;;;12.48;;
39050;SDS011;24805;55.852;37.644;2022-08-16T21:33:10;11.73;;;10.52;;
39050;SDS011;24805;55.852;37.644;2022-08-16T21:38:20;12.25;;;9.07;;
39050;SDS011;24805;55.852;37.644;2022-08-16T21:43:31;14.02;;;9.55;;
39050;SDS011;24805;55.852;37.644;2022-08-16T21:48:34;12.65;;;9.40;;
39050;SDS011;24805;55.852;37.644;2022-08-16T21:53:44;10.82;;;9.57;;
39050;SDS011;24805;55.852;37.644;2022-08-16T21:58:46;13.40;;;9.10;;
39050;SDS011;24805;55.852;37.644;2022-08-16T22:03:54;12.32;;;8.82;;
39050;SDS011;24805;55.852;37.644;2022-08-16T22:09:17;10.48;;;8.40;;
39050;SDS011;24805;55.852;37.644;2022-08-16T22:14:19;9.82;;;8.77;;
39050;SDS011;24805;55.852;37.644;2022-08-16T22:19:31;10.43;;;8.27;;
39050;SDS011;24805;55.852;37.644;2022-08-16T22:24:37;10.70;;;8.98;;
39050;SDS011;24805;55.852;37.644;2022-08-16T22:29:50;10.55;;;8.75;;
39050;SDS011;24805;55.852;37.644;2022-08-16T22:34:56;11.90;;;8.27;;
39050;SDS011;24805;55.852;37.644;2022-08-16T22:40:14;12.68;;;8.25;;
39050;SDS011;24805;55.852;37.644;2022-08-16T22:45:27;12.38;;;9.05;;
39050;SDS011;24805;55.852;37.644;2022-08-16T22:50:33;9.88;;;8.35;;
39050;SDS011;24805;55.852;37.644;2022-08-16T22:55:36;11.70;;;9.10;;
39050;SDS011;24805;55.852;37.644;2022-08-16T23:00:41;10.68;;;9.57;;
39050;SDS011;24805;55.852;37.644;2022-08-16T23:05:55;11.65;;;9.65;;
39050;SDS011;24805;55.852;37.644;2022-08-16T23:11:07;12.70;;;9.77;;
39050;SDS011;24805;55.852;37.644;2022-08-16T23:16:15;12.23;;;9.75;;
39050;SDS011;24805;55.852;37.644;2022-08-16T23:21:22;11.82;;;10.25;;
39050;SDS011;24805;55.852;37.644;2022-08-16T23:26:27;12.18;;;9.30;;
39050;SDS011;24805;55.852;37.644;2022-08-16T23:31:49;13.55;;;9.93;;
39050;SDS011;24805;55.852;37.644;2022-08-16T23:36:54;13.45;;;9.90;;
39050;SDS011;24805;55.852;37.644;2022-08-16T23:42:00;11.05;;;9.38;;
39050;SDS011;24805;55.852;37.644;2022-08-16T23:47:08;14.57;;;10.45;;
39050;SDS011;24805;55.852;37.644;2022-08-16T23:52:10;14.90;;;10.80;;
39050;SDS011;24805;55.852;37.644;2022-08-16T23:57:12;11.40;;;9.32;;
